Terminal Aerodrome Forecast
Issued by NWS

Home | Current Version | Previous Version | Text Only | Print | Product List | Glossary On
Versions: 1 2 3 4 5 6 7 8 9 10 11 12 13 14 15 16 17 18 19
607
FTAK31 PAJN 282324
TAFAYA
TAF
PAYA 282324Z 2900/2924 15007KT P6SM -SHRA SCT015 OVC035
      TEMPO 2900/2903 3SM SHRA BR BKN015
     FM290300 11007KT 5SM -SHRA BR SCT007 OVC015
     FM290900 09003KT 3SM -SHRA BR BKN006 OVC012
     FM291600 08004KT P6SM -SHRA SCT008 BKN018 OVC035
     FM292000 12006KT P6SM VCSH SCT020 OVC030
      AMD LTD TO CLD VIS AND WIND 2901/2909=

USA.gov is the U.S. government's official web portal to all federal, state and local government web resources and services.